Time;durP1;ratioP1;P1;durP2;ratioP2;P2;SDS_P1;SDS_P2;PMS_P1;PMS_P2;Temp;Humidity;BMP_temperature;BMP_pressure;BME280_temperature;BME280_humidity;BME280_pressure;Samples;Min_cycle;Max_cycle;Signal;HPM_P1;HPM_P2
2024/03/16 00:02:19;;;;;;;46.67;15.07;;;;;;;;;;5014395;28;20583;-66
2024/03/16 00:05:13;;;;;;;43.38;14.52;;;;;;;;;;5015045;28;20049;-65
2024/03/16 00:08:00;;;;;;;51.03;16.05;;;;;;;;;;5012253;28;20131;-66
2024/03/16 00:10:54;;;;;;;52.22;16.17;;;;;;;;;;5016469;28;20056;-62
2024/03/16 00:13:42;;;;;;;49.05;14.73;;;;;;;;;;5017280;28;20510;-63
2024/03/16 00:16:35;;;;;;;61.70;17.42;;;;;;;;;;5015337;28;20053;-62
2024/03/16 00:19:03;;;;;;;49.63;15.57;;;;;;;;;;5012730;28;20053;-62
2024/03/16 00:21:31;;;;;;;47.25;14.65;;;;;;;;;;5014164;28;20368;-61
2024/03/16 00:24:12;;;;;;;48.83;13.13;;;;;;;;;;5029641;28;20053;-61
2024/03/16 00:26:39;;;;;;;32.70;11.35;;;;;;;;;;5032105;28;20057;-61
2024/03/16 00:29:40;;;;;;;41.20;14.20;;;;;;;;;;5031002;28;20042;-61
2024/03/16 00:32:27;;;;;;;45.00;12.90;;;;;;;;;;5031046;28;20071;-61
2024/03/16 00:35:21;;;;;;;47.17;14.00;;;;;;;;;;5029892;28;20173;-61
2024/03/16 00:38:09;;;;;;;47.97;13.63;;;;;;;;;;5027743;28;20134;-61
2024/03/16 00:41:05;;;;;;;35.58;13.10;;;;;;;;;;5030189;28;20061;-61
2024/03/16 00:43:52;;;;;;;32.65;12.27;;;;;;;;;;5029306;28;20052;-61
2024/03/16 00:46:46;;;;;;;32.63;13.23;;;;;;;;;;5031665;28;20050;-61
2024/03/16 00:49:34;;;;;;;48.72;14.85;;;;;;;;;;5035210;28;20103;-53
2024/03/16 00:52:27;;;;;;;43.72;13.50;;;;;;;;;;5031696;28;20499;-52
2024/03/16 00:55:21;;;;;;;34.42;11.55;;;;;;;;;;5034753;28;20049;-50
2024/03/16 00:58:15;;;;;;;29.17;10.93;;;;;;;;;;5030844;28;20053;-50
2024/03/16 01:01:03;;;;;;;33.47;11.70;;;;;;;;;;5029178;28;20049;-51
2024/03/16 01:03:56;;;;;;;37.78;12.60;;;;;;;;;;5029062;28;20111;-54
2024/03/16 01:06:43;;;;;;;37.08;12.73;;;;;;;;;;5033286;28;20049;-61
2024/03/16 01:09:37;;;;;;;25.98;11.52;;;;;;;;;;5032651;28;20051;-61
2024/03/16 01:12:24;;;;;;;35.72;12.18;;;;;;;;;;5032164;28;20422;-61
2024/03/16 01:15:20;;;;;;;35.63;12.38;;;;;;;;;;5035738;28;20057;-61
2024/03/16 01:18:05;;;;;;;50.13;15.40;;;;;;;;;;5035519;28;20053;-61
2024/03/16 01:21:01;;;;;;;57.85;16.42;;;;;;;;;;5035136;28;20076;-61
2024/03/16 01:23:52;;;;;;;61.72;18.95;;;;;;;;;;5021691;28;20053;-62
2024/03/16 01:26:47;;;;;;;58.83;18.13;;;;;;;;;;5017669;28;20045;-62
2024/03/16 01:29:33;;;;;;;37.47;14.45;;;;;;;;;;5017447;28;20265;-62
2024/03/16 01:32:28;;;;;;;33.08;11.98;;;;;;;;;;5014844;28;20111;-62
2024/03/16 01:35:21;;;;;;;54.90;14.48;;;;;;;;;;5019478;28;20057;-61
2024/03/16 01:38:08;;;;;;;31.73;12.85;;;;;;;;;;5017791;28;20139;-62
2024/03/16 01:41:02;;;;;;;42.80;12.18;;;;;;;;;;5021169;28;20478;-61
2024/03/16 01:43:49;;;;;;;47.33;13.93;;;;;;;;;;5020772;28;20053;-61
2024/03/16 01:46:43;;;;;;;58.20;16.15;;;;;;;;;;5021825;28;20149;-61
2024/03/16 01:49:30;;;;;;;61.08;18.90;;;;;;;;;;5020222;28;20657;-61
2024/03/16 01:52:24;;;;;;;73.88;19.33;;;;;;;;;;5019411;28;20131;-62
2024/03/16 01:55:11;;;;;;;77.05;21.77;;;;;;;;;;5018778;28;20049;-64
2024/03/16 01:58:06;;;;;;;61.92;19.25;;;;;;;;;;5016042;28;20116;-62
2024/03/16 02:00:53;;;;;;;79.90;22.85;;;;;;;;;;5017254;28;20132;-62
2024/03/16 02:03:46;;;;;;;81.38;22.27;;;;;;;;;;5017305;28;20045;-61
2024/03/16 02:06:33;;;;;;;73.80;21.48;;;;;;;;;;5017914;28;20049;-61
2024/03/16 02:09:28;;;;;;;79.07;24.25;;;;;;;;;;5019429;28;20960;-61
2024/03/16 02:12:14;;;;;;;82.45;21.48;;;;;;;;;;5017163;28;20434;-60
2024/03/16 02:15:08;;;;;;;73.45;20.80;;;;;;;;;;5017193;28;20045;-53
2024/03/16 02:17:55;;;;;;;82.90;21.30;;;;;;;;;;5014077;28;20065;-54
2024/03/16 02:20:49;;;;;;;71.40;19.45;;;;;;;;;;5016304;28;20100;-50
2024/03/16 02:23:43;;;;;;;59.58;18.75;;;;;;;;;;5029130;28;20469;-50
2024/03/16 02:26:37;;;;;;;59.05;18.00;;;;;;;;;;5037474;28;20115;-51
2024/03/16 02:29:24;;;;;;;59.42;18.33;;;;;;;;;;5038326;28;20056;-51
2024/03/16 02:32:18;;;;;;;65.28;17.83;;;;;;;;;;5038441;28;20320;-61
2024/03/16 02:35:08;;;;;;;53.83;14.65;;;;;;;;;;5035293;28;20140;-61
2024/03/16 02:37:59;;;;;;;51.00;15.98;;;;;;;;;;5040284;28;20529;-61
2024/03/16 02:40:53;;;;;;;41.35;14.43;;;;;;;;;;5039543;28;20057;-61
2024/03/16 02:43:47;;;;;;;56.63;14.55;;;;;;;;;;5037054;28;20111;-59
2024/03/16 02:46:41;;;;;;;48.88;14.80;;;;;;;;;;5036515;28;20069;-66
2024/03/16 02:49:35;;;;;;;41.55;15.20;;;;;;;;;;5035223;28;20596;-66
2024/03/16 02:52:29;;;;;;;64.10;15.32;;;;;;;;;;5035422;28;20059;-66
2024/03/16 02:55:16;;;;;;;58.85;16.23;;;;;;;;;;5033132;28;20122;-66
2024/03/16 02:58:10;;;;;;;44.78;15.18;;;;;;;;;;5033789;28;20076;-66
2024/03/16 03:00:57;;;;;;;55.05;14.38;;;;;;;;;;5036223;28;20556;-52
2024/03/16 03:03:51;;;;;;;44.15;14.43;;;;;;;;;;5034271;28;20075;-52
2024/03/16 03:06:38;;;;;;;45.25;15.05;;;;;;;;;;5035851;28;20467;-53
2024/03/16 03:09:33;;;;;;;34.80;13.35;;;;;;;;;;5036335;28;20041;-50
2024/03/16 03:12:19;;;;;;;52.20;16.40;;;;;;;;;;5035877;28;20067;-61
2024/03/16 03:15:13;;;;;;;47.00;14.48;;;;;;;;;;5036620;28;20126;-48
2024/03/16 03:18:00;;;;;;;34.85;10.65;;;;;;;;;;5037022;28;20147;-52
2024/03/16 03:20:54;;;;;;;40.47;12.90;;;;;;;;;;5034845;28;20057;-50
2024/03/16 03:23:47;;;;;;;43.05;13.43;;;;;;;;;;5020357;28;20562;-49
2024/03/16 03:26:41;;;;;;;40.25;12.85;;;;;;;;;;5017705;28;20053;-52
2024/03/16 03:29:28;;;;;;;38.05;12.73;;;;;;;;;;5015858;28;20455;-67
2024/03/16 03:32:22;;;;;;;32.45;11.82;;;;;;;;;;5014363;28;20056;-66
2024/03/16 03:35:09;;;;;;;25.60;10.82;;;;;;;;;;5014159;28;20145;-66
2024/03/16 03:38:03;;;;;;;29.08;10.75;;;;;;;;;;5019488;28;20057;-66
2024/03/16 03:40:50;;;;;;;24.27;11.15;;;;;;;;;;5016284;28;20499;-63
2024/03/16 03:43:47;;;;;;;34.40;11.00;;;;;;;;;;5015614;28;20041;-62
2024/03/16 03:46:50;;;;;;;30.70;10.30;;;;;;;;;;5016686;28;20046;-62
2024/03/16 03:49:36;;;;;;;25.35;8.90;;;;;;;;;;5010656;28;20049;-62
2024/03/16 03:52:21;;;;;;;28.10;9.20;;;;;;;;;;5016871;28;20061;-62
2024/03/16 03:55:15;;;;;;;23.85;8.98;;;;;;;;;;5014735;28;20061;-62
2024/03/16 03:58:09;;;;;;;25.02;8.15;;;;;;;;;;5015516;28;20108;-61
2024/03/16 04:01:03;;;;;;;17.35;7.63;;;;;;;;;;5014451;28;20103;-61
2024/03/16 04:03:57;;;;;;;22.25;7.57;;;;;;;;;;5013100;28;20060;-61
2024/03/16 04:06:51;;;;;;;19.70;7.53;;;;;;;;;;5013872;28;20438;-61
2024/03/16 04:09:38;;;;;;;20.88;7.47;;;;;;;;;;5016064;28;20049;-51
2024/03/16 04:12:32;;;;;;;17.63;6.22;;;;;;;;;;5007753;28;20124;-63
2024/03/16 04:15:19;;;;;;;15.70;6.18;;;;;;;;;;5011061;28;20053;-63
2024/03/16 04:18:13;;;;;;;13.20;5.43;;;;;;;;;;5015166;28;20056;-62
2024/03/16 04:21:02;;;;;;;8.88;4.35;;;;;;;;;;5010767;28;20763;-62
2024/03/16 04:24:02;;;;;;;12.60;4.95;;;;;;;;;;5014776;28;20049;-62
2024/03/16 04:26:49;;;;;;;13.60;4.90;;;;;;;;;;5014107;28;20111;-64
2024/03/16 04:29:43;;;;;;;13.05;4.90;;;;;;;;;;5013720;28;20558;-62
2024/03/16 04:32:30;;;;;;;12.52;4.43;;;;;;;;;;5015417;28;20061;-62
2024/03/16 04:35:24;;;;;;;12.70;3.53;;;;;;;;;;5014524;28;20057;-63
2024/03/16 04:38:12;;;;;;;12.63;4.30;;;;;;;;;;5018130;28;20515;-62
2024/03/16 04:41:05;;;;;;;13.70;4.43;;;;;;;;;;5016437;28;20171;-61
2024/03/16 04:43:52;;;;;;;12.98;4.13;;;;;;;;;;5014357;28;20099;-61
2024/03/16 04:46:47;;;;;;;13.80;4.68;;;;;;;;;;5013636;28;20724;-61
2024/03/16 04:49:33;;;;;;;16.98;5.10;;;;;;;;;;5013521;28;20041;-60
2024/03/16 04:52:27;;;;;;;26.83;6.20;;;;;;;;;;5017425;28;20041;-61
2024/03/16 04:55:14;;;;;;;16.15;5.38;;;;;;;;;;5019043;28;20103;-61
2024/03/16 04:58:08;;;;;;;11.85;5.10;;;;;;;;;;5017901;28;20103;-61
2024/03/16 05:00:55;;;;;;;25.60;5.85;;;;;;;;;;5018844;28;20057;-61
2024/03/16 05:03:50;;;;;;;13.73;6.07;;;;;;;;;;5018256;28;20533;-61
2024/03/16 05:06:36;;;;;;;18.33;5.75;;;;;;;;;;5021763;28;20045;-67
2024/03/16 05:09:30;;;;;;;22.95;5.78;;;;;;;;;;5016254;28;20590;-62
2024/03/16 05:12:18;;;;;;;15.35;4.97;;;;;;;;;;5016862;28;20100;-62
2024/03/16 05:15:11;;;;;;;16.65;5.30;;;;;;;;;;5019398;28;20057;-62
2024/03/16 05:17:59;;;;;;;14.25;5.30;;;;;;;;;;5020023;28;20061;-63
2024/03/16 05:20:52;;;;;;;12.45;4.80;;;;;;;;;;5017028;28;22412;-62
2024/03/16 05:23:46;;;;;;;12.98;4.57;;;;;;;;;;5020392;28;20507;-53
2024/03/16 05:26:47;;;;;;;12.82;4.72;;;;;;;;;;5019924;28;20554;-51
2024/03/16 05:29:33;;;;;;;15.65;4.63;;;;;;;;;;5018399;28;20049;-51
2024/03/16 05:32:28;;;;;;;15.13;4.10;;;;;;;;;;5024105;28;20511;-56
2024/03/16 05:35:14;;;;;;;11.55;3.30;;;;;;;;;;5021032;28;20053;-62
2024/03/16 05:38:08;;;;;;;6.65;2.45;;;;;;;;;;5018487;28;20050;-66
2024/03/16 05:40:58;;;;;;;6.72;1.65;;;;;;;;;;5017502;28;20135;-66
2024/03/16 05:43:53;;;;;;;4.60;1.67;;;;;;;;;;5016072;28;20056;-65
2024/03/16 05:46:39;;;;;;;6.00;1.77;;;;;;;;;;5010402;28;20053;-68
2024/03/16 05:49:33;;;;;;;3.60;1.55;;;;;;;;;;5014213;28;20135;-66
2024/03/16 05:52:20;;;;;;;1.48;1.00;;;;;;;;;;5015684;28;20053;-60
2024/03/16 05:55:15;;;;;;;2.50;1.08;;;;;;;;;;5016050;28;20099;-61
2024/03/16 05:58:01;;;;;;;4.50;1.38;;;;;;;;;;5013771;28;20155;-60
2024/03/16 06:00:56;;;;;;;4.32;1.02;;;;;;;;;;5014340;28;20613;-60
2024/03/16 06:03:42;;;;;;;7.18;1.90;;;;;;;;;;5013222;28;20049;-60
2024/03/16 06:06:36;;;;;;;19.08;2.22;;;;;;;;;;5014288;28;20058;-47
2024/03/16 06:09:23;;;;;;;12.50;2.22;;;;;;;;;;5018122;28;20069;-51
2024/03/16 06:12:18;;;;;;;20.23;3.08;;;;;;;;;;5015206;28;20132;-52
2024/03/16 06:15:05;;;;;;;18.98;2.85;;;;;;;;;;5015888;28;20053;-54
2024/03/16 06:17:58;;;;;;;23.23;3.08;;;;;;;;;;5015885;28;20440;-52
2024/03/16 06:20:45;;;;;;;18.80;3.67;;;;;;;;;;5017307;28;20442;-52
2024/03/16 06:23:52;;;;;;;19.15;3.22;;;;;;;;;;5020238;28;20123;-49
2024/03/16 06:26:54;;;;;;;28.83;3.25;;;;;;;;;;5016487;28;20442;-48
2024/03/16 06:29:41;;;;;;;30.02;3.80;;;;;;;;;;5018567;28;20053;-50
2024/03/16 06:32:28;;;;;;;27.88;3.97;;;;;;;;;;5016945;28;20046;-51
2024/03/16 06:35:21;;;;;;;32.67;3.55;;;;;;;;;;5018813;28;20096;-49
2024/03/16 06:38:08;;;;;;;28.30;3.28;;;;;;;;;;5018640;28;20057;-54
2024/03/16 06:41:02;;;;;;;24.83;4.13;;;;;;;;;;5018105;28;20115;-48
2024/03/16 06:43:56;;;;;;;15.25;3.15;;;;;;;;;;5019335;28;20076;-49
2024/03/16 06:46:50;;;;;;;21.92;3.65;;;;;;;;;;5017511;28;20510;-46
2024/03/16 06:49:44;;;;;;;13.95;2.78;;;;;;;;;;5013564;28;20502;-61
2024/03/16 06:52:31;;;;;;;29.45;4.15;;;;;;;;;;5017478;28;20100;-61
2024/03/16 06:55:25;;;;;;;23.75;3.58;;;;;;;;;;5013626;28;20049;-60
2024/03/16 06:58:19;;;;;;;35.95;4.30;;;;;;;;;;5016752;28;20061;-47
2024/03/16 07:01:14;;;;;;;32.88;4.53;;;;;;;;;;5014893;28;20050;-62
2024/03/16 07:04:07;;;;;;;28.92;3.35;;;;;;;;;;5012020;28;20104;-61
2024/03/16 07:06:54;;;;;;;24.65;4.00;;;;;;;;;;5017734;28;20056;-66
2024/03/16 07:09:49;;;;;;;27.75;4.35;;;;;;;;;;5014055;28;20041;-61
2024/03/16 07:12:35;;;;;;;22.60;3.92;;;;;;;;;;5015450;28;20049;-60
2024/03/16 07:15:29;;;;;;;27.33;4.13;;;;;;;;;;5016027;28;20515;-60
2024/03/16 07:18:16;;;;;;;28.23;3.63;;;;;;;;;;5017582;28;20136;-65
2024/03/16 07:21:10;;;;;;;29.38;4.07;;;;;;;;;;5017864;28;20234;-66
2024/03/16 07:24:04;;;;;;;30.23;3.67;;;;;;;;;;5018403;28;20056;-65
2024/03/16 07:26:58;;;;;;;27.67;4.30;;;;;;;;;;5020565;28;20075;-62
2024/03/16 07:29:45;;;;;;;27.08;4.38;;;;;;;;;;5018913;28;20990;-52
2024/03/16 07:32:39;;;;;;;34.72;4.40;;;;;;;;;;5019733;28;20049;-62
2024/03/16 07:35:27;;;;;;;37.72;4.05;;;;;;;;;;5018380;28;20053;-62
2024/03/16 07:38:20;;;;;;;24.85;3.53;;;;;;;;;;5016800;28;20060;-62
2024/03/16 07:41:08;;;;;;;23.20;4.53;;;;;;;;;;5014952;28;20050;-62
2024/03/16 07:44:01;;;;;;;34.28;4.07;;;;;;;;;;5017133;28;20209;-62
2024/03/16 07:46:55;;;;;;;29.90;4.95;;;;;;;;;;5015330;28;20054;-61
2024/03/16 07:49:49;;;;;;;27.85;4.45;;;;;;;;;;5011499;28;20054;-62
2024/03/16 07:52:36;;;;;;;24.40;3.95;;;;;;;;;;5014761;28;20045;-61
2024/03/16 07:55:30;;;;;;;30.63;3.70;;;;;;;;;;5010732;28;20045;-62
2024/03/16 07:58:18;;;;;;;26.27;3.22;;;;;;;;;;5013968;28;20511;-65
2024/03/16 08:01:12;;;;;;;24.30;3.05;;;;;;;;;;5011171;28;20127;-61
2024/03/16 08:03:58;;;;;;;30.25;3.85;;;;;;;;;;5010129;28;20138;-62
2024/03/16 08:06:52;;;;;;;29.33;3.47;;;;;;;;;;5009288;28;20104;-61
2024/03/16 08:09:46;;;;;;;28.70;3.88;;;;;;;;;;5013033;28;20166;-62
2024/03/16 08:12:33;;;;;;;30.95;4.22;;;;;;;;;;5014308;28;20164;-62
2024/03/16 08:15:27;;;;;;;37.20;4.63;;;;;;;;;;5018050;28;20065;-62
2024/03/16 08:18:14;;;;;;;31.50;4.25;;;;;;;;;;5016609;28;20178;-61
2024/03/16 08:21:08;;;;;;;29.20;4.68;;;;;;;;;;5016103;28;20060;-62
2024/03/16 08:24:02;;;;;;;28.80;3.80;;;;;;;;;;5016506;28;20435;-61
2024/03/16 08:27:03;;;;;;;30.58;3.88;;;;;;;;;;5013639;28;20131;-60
2024/03/16 08:29:56;;;;;;;25.40;4.38;;;;;;;;;;5016896;28;20055;-60
2024/03/16 08:32:50;;;;;;;34.78;5.07;;;;;;;;;;5015912;28;20041;-60
2024/03/16 08:35:37;;;;;;;20.00;3.95;;;;;;;;;;5010909;28;20061;-60
2024/03/16 08:38:32;;;;;;;36.58;4.65;;;;;;;;;;5014891;28;20057;-60
2024/03/16 08:41:18;;;;;;;31.20;4.70;;;;;;;;;;5010592;28;20045;-60
2024/03/16 08:44:12;;;;;;;24.98;4.00;;;;;;;;;;5011933;28;20046;-60
2024/03/16 08:46:59;;;;;;;38.97;5.32;;;;;;;;;;5012746;28;20069;-61
2024/03/16 08:49:53;;;;;;;20.42;3.38;;;;;;;;;;5010864;28;20058;-60
2024/03/16 08:52:41;;;;;;;36.95;4.07;;;;;;;;;;5013910;28;20054;-61
2024/03/16 08:55:34;;;;;;;30.88;4.30;;;;;;;;;;5015800;28;20060;-60
2024/03/16 08:58:21;;;;;;;33.65;4.72;;;;;;;;;;5012380;28;20609;-60
2024/03/16 09:01:16;;;;;;;35.80;5.10;;;;;;;;;;5010340;28;20077;-60
2024/03/16 09:04:02;;;;;;;40.03;5.15;;;;;;;;;;5011573;28;20069;-61
2024/03/16 09:06:56;;;;;;;44.58;5.97;;;;;;;;;;5012390;28;20188;-60
2024/03/16 09:09:45;;;;;;;36.65;5.93;;;;;;;;;;5007590;28;20049;-61
2024/03/16 09:12:37;;;;;;;38.95;5.82;;;;;;;;;;5013739;28;20057;-50
2024/03/16 09:15:31;;;;;;;42.35;5.95;;;;;;;;;;5012702;28;20069;-50
2024/03/16 09:18:18;;;;;;;40.28;5.85;;;;;;;;;;5014005;28;20473;-49
2024/03/16 09:21:12;;;;;;;43.17;5.70;;;;;;;;;;5014419;28;20050;-61
2024/03/16 09:24:13;;;;;;;44.88;5.72;;;;;;;;;;5013334;28;20064;-63
2024/03/16 09:27:07;;;;;;;43.83;5.60;;;;;;;;;;5013537;28;20058;-63
2024/03/16 09:30:11;;;;;;;50.22;6.65;;;;;;;;;;5015075;28;20052;-62
2024/03/16 09:32:55;;;;;;;39.28;5.75;;;;;;;;;;5013059;28;22260;-62
2024/03/16 09:35:52;;;;;;;36.15;5.15;;;;;;;;;;5011971;28;20514;-62
2024/03/16 09:38:39;;;;;;;48.55;6.78;;;;;;;;;;5014677;28;20054;-62
2024/03/16 09:41:33;;;;;;;54.95;7.03;;;;;;;;;;5015615;28;20057;-48
2024/03/16 09:44:03;;;;;;;44.97;7.20;;;;;;;;;;5015261;28;21199;-48
2024/03/16 09:46:56;;;;;;;42.47;6.72;;;;;;;;;;5010475;28;20066;-47
2024/03/16 09:49:42;;;;;;;50.33;6.43;;;;;;;;;;4998890;28;20115;-63
2024/03/16 09:52:40;;;;;;;47.60;6.38;;;;;;;;;;4992630;28;20058;-63
2024/03/16 09:55:31;;;;;;;40.38;6.22;;;;;;;;;;5014213;28;20398;-62
2024/03/16 09:58:24;;;;;;;39.97;6.63;;;;;;;;;;4995041;28;20080;-63
2024/03/16 10:01:19;;;;;;;51.70;7.03;;;;;;;;;;4994410;28;20065;-62
2024/03/16 10:04:07;;;;;;;43.28;6.93;;;;;;;;;;4993339;28;20503;-63
2024/03/16 10:07:00;;;;;;;38.78;6.90;;;;;;;;;;4996427;28;20064;-62
2024/03/16 10:09:53;;;;;;;49.72;6.38;;;;;;;;;;4998579;28;20046;-51
2024/03/16 10:12:46;;;;;;;46.00;5.85;;;;;;;;;;5008671;28;20064;-51
2024/03/16 10:15:41;;;;;;;51.42;7.13;;;;;;;;;;4994781;28;20084;-52
2024/03/16 10:18:36;;;;;;;41.00;7.13;;;;;;;;;;4994575;28;20220;-51
2024/03/16 10:21:22;;;;;;;36.58;6.18;;;;;;;;;;4997416;28;20064;-52
2024/03/16 10:24:22;;;;;;;53.35;7.40;;;;;;;;;;5023813;28;20057;-52
2024/03/16 10:27:16;;;;;;;49.40;6.88;;;;;;;;;;5012431;28;20061;-62
2024/03/16 10:30:01;;;;;;;56.90;7.50;;;;;;;;;;5011477;28;20829;-61
2024/03/16 10:32:56;;;;;;;60.22;7.45;;;;;;;;;;5019805;28;20482;-61
2024/03/16 10:35:41;;;;;;;40.28;6.40;;;;;;;;;;5010788;28;20893;-60
2024/03/16 10:38:33;;;;;;;53.17;6.80;;;;;;;;;;5010069;28;20534;-61
2024/03/16 10:41:20;;;;;;;50.22;7.65;;;;;;;;;;5011363;28;20511;-61
2024/03/16 10:44:14;;;;;;;50.45;6.97;;;;;;;;;;5028149;28;20053;-65
2024/03/16 10:46:59;;;;;;;51.55;7.43;;;;;;;;;;5005582;28;20058;-49
2024/03/16 10:49:52;;;;;;;50.17;7.25;;;;;;;;;;5025344;28;20568;-46
2024/03/16 10:52:40;;;;;;;70.80;8.57;;;;;;;;;;5013621;28;20050;-47
2024/03/16 10:55:33;;;;;;;56.55;7.63;;;;;;;;;;5009356;28;20554;-49
2024/03/16 10:58:19;;;;;;;46.33;7.07;;;;;;;;;;5012004;28;20062;-50
2024/03/16 11:01:19;;;;;;;58.30;9.10;;;;;;;;;;5025160;28;20186;-51
2024/03/16 11:04:13;;;;;;;56.30;8.10;;;;;;;;;;5008693;28;20069;-61
2024/03/16 11:07:06;;;;;;;61.20;8.98;;;;;;;;;;5011497;28;20588;-61
2024/03/16 11:10:00;;;;;;;59.65;7.07;;;;;;;;;;5012981;28;20049;-61
2024/03/16 11:13:10;;;;;;;61.00;8.20;;;;;;;;;;5017917;28;20065;-61
2024/03/16 11:16:06;;;;;;;;;;;;;;;;;;5008483;28;20061;-61
2024/03/16 11:18:52;;;;;;;53.63;7.40;;;;;;;;;;5013998;28;19936;-61
2024/03/16 11:21:41;;;;;;;55.72;8.65;;;;;;;;;;5015349;28;21749;-51
2024/03/16 11:24:34;;;;;;;69.15;10.13;;;;;;;;;;5016921;28;20061;-65
2024/03/16 11:27:26;;;;;;;69.77;8.23;;;;;;;;;;5028944;28;20061;-64
2024/03/16 11:30:19;;;;;;;62.17;8.50;;;;;;;;;;5016845;28;20816;-65
2024/03/16 11:33:15;;;;;;;57.65;9.07;;;;;;;;;;5013204;28;20057;-65
2024/03/16 11:36:08;;;;;;;62.38;8.93;;;;;;;;;;5011446;28;20441;-65
2024/03/16 11:38:54;;;;;;;58.13;8.52;;;;;;;;;;5010676;28;20418;-64
2024/03/16 11:41:48;;;;;;;59.08;8.52;;;;;;;;;;5011936;28;20057;-65
2024/03/16 11:44:34;;;;;;;76.93;9.15;;;;;;;;;;5013156;28;20132;-64
2024/03/16 11:47:27;;;;;;;70.20;8.25;;;;;;;;;;5008273;28;20046;-65
2024/03/16 11:50:13;;;;;;;64.30;8.68;;;;;;;;;;5011295;28;20065;-63
2024/03/16 11:53:06;;;;;;;52.67;6.65;;;;;;;;;;5013333;28;20052;-61
2024/03/16 11:56:07;;;;;;;50.20;7.95;;;;;;;;;;4997805;28;20061;-61
2024/03/16 11:59:06;;;;;;;67.05;8.00;;;;;;;;;;5006219;28;20057;-61
2024/03/16 12:01:53;;;;;;;49.55;7.45;;;;;;;;;;5012111;28;20060;-61
2024/03/16 12:04:45;;;;;;;54.97;8.90;;;;;;;;;;5012009;28;20057;-61
2024/03/16 12:07:31;;;;;;;56.25;8.25;;;;;;;;;;5009092;28;20073;-61
2024/03/16 12:10:24;;;;;;;72.03;8.60;;;;;;;;;;5025322;28;20068;-52
2024/03/16 12:13:17;;;;;;;64.00;8.73;;;;;;;;;;5014830;28;20053;-54
2024/03/16 12:16:04;;;;;;;62.15;8.82;;;;;;;;;;5011690;28;20088;-54
2024/03/16 12:18:56;;;;;;;70.63;9.65;;;;;;;;;;5013844;28;20269;-63
2024/03/16 12:21:43;;;;;;;69.28;9.60;;;;;;;;;;5015487;28;20061;-62
2024/03/16 12:24:42;;;;;;;75.68;9.73;;;;;;;;;;5015772;28;20061;-63
2024/03/16 12:27:37;;;;;;;58.72;9.60;;;;;;;;;;5012280;28;20053;-63
2024/03/16 12:30:37;;;;;;;83.22;11.20;;;;;;;;;;5011886;28;20065;-63
2024/03/16 12:33:29;;;;;;;70.85;10.05;;;;;;;;;;5009856;28;20484;-63
2024/03/16 12:36:15;;;;;;;64.05;8.85;;;;;;;;;;5010700;28;20061;-64
2024/03/16 12:39:10;;;;;;;57.10;7.63;;;;;;;;;;5014600;28;20495;-64
2024/03/16 12:41:54;;;;;;;68.78;8.73;;;;;;;;;;5011513;28;20507;-65
2024/03/16 12:44:47;;;;;;;63.60;8.07;;;;;;;;;;5009205;28;20478;-65
2024/03/16 12:47:42;;;;;;;54.30;7.05;;;;;;;;;;5009434;28;20053;-48
2024/03/16 12:50:26;;;;;;;53.50;6.70;;;;;;;;;;5013416;28;20049;-62
2024/03/16 12:53:19;;;;;;;66.63;8.13;;;;;;;;;;5016901;28;20422;-62
2024/03/16 12:56:07;;;;;;;61.00;8.15;;;;;;;;;;5013048;28;20053;-62
2024/03/16 12:58:58;;;;;;;66.78;9.20;;;;;;;;;;5002123;28;20062;-62
2024/03/16 13:01:44;;;;;;;61.20;9.15;;;;;;;;;;5009898;28;20061;-62
2024/03/16 13:04:37;;;;;;;57.90;8.15;;;;;;;;;;5011647;28;20073;-62
2024/03/16 13:07:23;;;;;;;63.30;8.13;;;;;;;;;;5014023;28;20518;-49
2024/03/16 13:10:16;;;;;;;53.22;7.55;;;;;;;;;;5012854;28;20053;-62
2024/03/16 13:13:02;;;;;;;49.95;7.03;;;;;;;;;;5017616;28;20114;-62
2024/03/16 13:15:55;;;;;;;52.50;7.00;;;;;;;;;;5019587;28;20132;-62
2024/03/16 13:18:41;;;;;;;50.13;6.85;;;;;;;;;;5016033;28;20437;-62
2024/03/16 13:21:35;;;;;;;57.53;7.55;;;;;;;;;;5014527;28;20065;-62
2024/03/16 13:24:27;;;;;;;44.15;6.15;;;;;;;;;;5015232;28;20454;-64
2024/03/16 13:27:21;;;;;;;46.30;6.63;;;;;;;;;;5016534;28;20061;-64
2024/03/16 13:30:07;;;;;;;42.67;6.07;;;;;;;;;;5013876;28;20057;-65
2024/03/16 13:32:59;;;;;;;57.40;7.30;;;;;;;;;;5015678;28;20068;-65
2024/03/16 13:35:53;;;;;;;50.97;6.90;;;;;;;;;;5029377;28;20054;-61
2024/03/16 13:38:45;;;;;;;47.17;6.13;;;;;;;;;;5013351;28;20053;-61
2024/03/16 13:41:31;;;;;;;48.17;6.40;;;;;;;;;;5012275;28;20064;-61
2024/03/16 13:44:24;;;;;;;45.92;6.25;;;;;;;;;;5012225;28;21580;-61
2024/03/16 13:47:18;;;;;;;39.78;5.90;;;;;;;;;;5013957;28;20068;-61
2024/03/16 13:50:08;;;;;;;44.17;5.32;;;;;;;;;;5014606;28;20061;-61
2024/03/16 13:52:59;;;;;;;32.13;4.50;;;;;;;;;;5015227;28;20054;-61
2024/03/16 13:55:46;;;;;;;40.25;6.10;;;;;;;;;;5006967;28;20108;-53
2024/03/16 13:58:38;;;;;;;38.13;5.53;;;;;;;;;;5011595;28;20470;-53
2024/03/16 14:01:24;;;;;;;30.05;4.80;;;;;;;;;;5018216;28;20170;-53
2024/03/16 14:04:19;;;;;;;28.02;4.20;;;;;;;;;;5013608;28;20061;-55
2024/03/16 14:07:03;;;;;;;34.13;5.00;;;;;;;;;;5015167;28;20065;-55
2024/03/16 14:09:38;;;;;;;39.80;5.72;;;;;;;;;;5014515;28;20057;-55
2024/03/16 14:12:05;;;;;;;24.98;4.82;;;;;;;;;;5012158;28;20070;-61
2024/03/16 14:14:32;;;;;;;26.98;4.82;;;;;;;;;;5013442;28;20567;-55
2024/03/16 14:17:07;;;;;;;23.35;4.20;;;;;;;;;;5016442;28;20057;-50
2024/03/16 14:19:34;;;;;;;21.13;3.33;;;;;;;;;;5011429;28;20727;-52
2024/03/16 14:22:07;;;;;;;17.83;2.60;;;;;;;;;;5014934;28;20053;-49
2024/03/16 14:24:50;;;;;;;15.45;3.00;;;;;;;;;;5017828;28;20467;-52
2024/03/16 14:27:16;;;;;;;16.38;2.75;;;;;;;;;;5016169;28;20068;-53
2024/03/16 14:29:49;;;;;;;13.88;3.38;;;;;;;;;;5015866;28;20516;-62
2024/03/16 14:32:15;;;;;;;13.63;2.53;;;;;;;;;;4998060;28;20236;-62
2024/03/16 14:34:41;;;;;;;13.45;2.40;;;;;;;;;;5011656;28;20064;-62
2024/03/16 14:37:14;;;;;;;10.20;2.40;;;;;;;;;;5011860;28;20049;-62
2024/03/16 14:39:40;;;;;;;16.23;2.33;;;;;;;;;;5014707;28;20057;-61
2024/03/16 14:42:14;;;;;;;15.70;2.53;;;;;;;;;;5012451;28;20050;-62
2024/03/16 14:44:59;;;;;;;9.70;1.77;;;;;;;;;;5015326;28;20056;-62
2024/03/16 14:47:52;;;;;;;4.13;1.55;;;;;;;;;;5011740;28;20053;-62
2024/03/16 14:50:45;;;;;;;9.10;1.30;;;;;;;;;;5016365;28;20061;-62
2024/03/16 14:53:32;;;;;;;4.45;1.05;;;;;;;;;;5012171;28;20065;-62
2024/03/16 14:56:24;;;;;;;4.00;1.00;;;;;;;;;;5015432;28;20061;-63
2024/03/16 14:59:10;;;;;;;3.28;1.35;;;;;;;;;;5009694;28;20174;-48
2024/03/16 15:02:04;;;;;;;5.78;1.05;;;;;;;;;;5010827;28;20092;-49
2024/03/16 15:04:49;;;;;;;4.78;1.63;;;;;;;;;;5008981;28;20668;-49
2024/03/16 15:07:49;;;;;;;4.57;1.20;;;;;;;;;;5006858;28;20578;-62
2024/03/16 15:10:35;;;;;;;8.73;1.80;;;;;;;;;;5005768;28;20565;-62
2024/03/16 15:13:28;;;;;;;7.82;1.48;;;;;;;;;;5009854;28;20386;-62
2024/03/16 15:16:14;;;;;;;3.65;1.50;;;;;;;;;;5011218;28;20061;-62
2024/03/16 15:19:07;;;;;;;7.00;1.50;;;;;;;;;;5011893;28;20057;-63
2024/03/16 15:21:53;;;;;;;12.02;1.60;;;;;;;;;;5009311;28;20420;-62
2024/03/16 15:24:55;;;;;;;10.63;1.58;;;;;;;;;;5001207;28;20062;-62
2024/03/16 15:30:22;;;;;;;5.70;1.98;;;;;;;;;;4990314;28;20064;-61
2024/03/16 15:33:07;;;;;;;6.57;2.28;;;;;;;;;;4989671;28;20065;-61
2024/03/16 15:36:00;;;;;;;5.03;2.42;;;;;;;;;;5003415;28;20061;-62
2024/03/16 15:38:46;;;;;;;11.30;3.00;;;;;;;;;;4989854;28;20069;-61
2024/03/16 15:41:40;;;;;;;13.05;2.97;;;;;;;;;;4989014;28;20490;-61
2024/03/16 15:44:25;;;;;;;10.52;2.33;;;;;;;;;;4989731;28;20663;-53
2024/03/16 15:47:18;;;;;;;13.85;2.50;;;;;;;;;;4988995;28;20107;-61
2024/03/16 15:50:05;;;;;;;11.65;2.65;;;;;;;;;;4988078;28;20522;-62
2024/03/16 15:52:57;;;;;;;11.80;2.08;;;;;;;;;;4992006;28;20054;-62
2024/03/16 15:55:43;;;;;;;11.38;1.75;;;;;;;;;;4987330;28;20113;-62
2024/03/16 15:58:36;;;;;;;7.32;1.33;;;;;;;;;;4990410;28;20058;-61
2024/03/16 16:01:22;;;;;;;5.57;1.00;;;;;;;;;;4992875;28;20609;-62
2024/03/16 16:04:15;;;;;;;2.50;0.90;;;;;;;;;;4993480;28;20614;-54
2024/03/16 16:07:03;;;;;;;2.05;0.85;;;;;;;;;;4986473;28;20309;-51
2024/03/16 16:09:54;;;;;;;0.40;0.40;;;;;;;;;;4990566;28;20060;-53
2024/03/16 16:12:40;;;;;;;0.40;0.40;;;;;;;;;;4989544;28;20423;-49
2024/03/16 16:15:33;;;;;;;1.52;0.50;;;;;;;;;;4996010;28;20072;-48
2024/03/16 16:18:19;;;;;;;0.40;0.40;;;;;;;;;;4990562;28;20065;-52
2024/03/16 16:21:12;;;;;;;0.40;0.40;;;;;;;;;;4990370;28;20447;-52
2024/03/16 16:24:05;;;;;;;0.68;0.50;;;;;;;;;;4995185;28;20122;-65
2024/03/16 16:27:08;;;;;;;0.50;0.50;;;;;;;;;;5004807;28;20094;-65
2024/03/16 16:29:51;;;;;;;1.30;0.73;;;;;;;;;;5007392;28;20065;-63
2024/03/16 16:32:44;;;;;;;1.08;0.47;;;;;;;;;;5009517;28;20056;-65
2024/03/16 16:35:30;;;;;;;0.50;0.50;;;;;;;;;;5012750;28;20065;-65
2024/03/16 16:38:23;;;;;;;0.52;0.50;;;;;;;;;;5015537;28;20470;-64
2024/03/16 16:41:11;;;;;;;0.68;0.63;;;;;;;;;;5009399;28;20062;-52
2024/03/16 16:44:03;;;;;;;1.23;0.50;;;;;;;;;;5012484;28;20068;-50
2024/03/16 16:46:48;;;;;;;2.35;0.60;;;;;;;;;;5010354;28;20053;-50